Latest Weather Observations for Adelaide (West Terrace / ngayirdapira)

IDS60801

Issued at 4:02 am CST Wednesday 23 September 2020 (issued every 10 minutes, with the page automatically refreshed every 10 minutes)

About weather observations | Map of weather stations | Latest weather observations for SA | Other Formats
Station Details ID: 023000 Name: ADELAIDE (WEST TERRACE / NGAYIRDAPIRA) Lat: -34.93 Lon: 138.58 Height: 29.32 m
Data from the previous 72 hours. | See also: Recent months at Adelaide (West Terrace / ngayirdapira)
Date/Time
CST
Temp
°C
App
Temp
°C
Dew
Point
°C
Rel
Hum
%
Delta-T
°C
Wind Press
QNH
hPa
Press
MSL
hPa
Rain since
9am
mm
Dir  Spd
km/h
Gust
km/h
Spd
kts
Gust
kts
23/04:00am 11.6 7.9 7.9 78 1.8 W 17 28 9 15 1016.5 1016.5 1.0
23/03:30am 11.9 8.1 7.6 75 2.1 W 17 28 9 15 1016.2 1016.2 1.0
23/03:00am 11.7 8.0 7.8 77 1.9 WSW 17 32 9 17 1016.4 1016.4 1.0
23/02:30am 12.1 7.8 8.0 76 2.0 W 20 33 11 18 1016.5 1016.5 1.0
23/02:00am 11.9 7.8 8.0 77 1.9 W 19 28 10 15 1016.7 1016.7 1.0
23/01:30am 12.0 7.9 7.9 76 2.0 W 19 30 10 16 1016.8 1016.8 1.0
23/01:00am 12.2 8.1 7.7 74 2.2 W 19 28 10 15 1016.9 1016.9 1.0
23/12:30am 12.2 7.8 7.5 73 2.3 W 20 32 11 17 1017.0 1017.0 1.0
23/12:00am 12.0 8.3 8.1 77 1.9 W 17 30 9 16 1017.1 1017.1 1.0
 
Date/Time
CST
Temp
°C
App
Temp
°C
Dew
Point
°C
Rel
Hum
%
Delta-T
°C
Wind Press
QNH
hPa
Press
MSL
hPa
Rain since
9am
mm
Dir  Spd
km/h
Gust
km/h
Spd
kts
Gust
kts
22/11:30pm 12.1 8.1 8.2 77 1.9 W 19 35 10 19 1017.1 1017.1 1.0
22/11:00pm 12.3 7.2 7.8 74 2.2 W 24 41 13 22 1017.3 1017.3 1.0
22/10:30pm 12.5 7.8 7.8 73 2.3 W 22 35 12 19 1017.3 1017.3 1.0
22/10:00pm 12.6 8.6 8.3 75 2.1 W 19 30 10 16 1017.4 1017.4 1.0
22/09:30pm 12.3 9.1 8.4 77 1.9 W 15 28 8 15 1017.4 1017.4 1.0
22/09:00pm 12.5 9.1 9.1 80 1.7 W 17 24 9 13 1017.1 1017.1 1.0
22/08:30pm 12.8 8.9 8.7 76 2.0 W 19 32 10 17 1017.0 1017.0 1.0
22/08:00pm 12.8 8.6 7.5 70 2.6 W 19 32 10 17 1016.7 1016.7 1.0
22/07:30pm 13.1 9.0 8.0 71 2.5 W 19 32 10 17 1016.2 1016.2 1.0
22/07:00pm 13.3 9.2 7.7 69 2.8 W 19 32 10 17 1015.7 1015.7 1.0
22/06:30pm 13.2 9.8 9.1 76 2.1 WNW 17 26 9 14 1015.4 1015.4 1.0
22/06:00pm 13.1 10.4 8.8 75 2.2 W 13 20 7 11 1015.1 1015.1 1.0
22/05:30pm 13.0 9.5 8.9 76 2.1 WNW 17 28 9 15 1015.0 1015.0 1.0
22/05:00pm 13.3 9.5 9.0 75 2.2 W 19 32 10 17 1014.6 1014.6 1.0
22/04:45pm 12.4 9.1 9.6 83 1.4 W 17 30 9 16 1014.5 1014.5 1.0
22/04:30pm 12.1 8.4 9.3 83 1.4 WSW 19 32 10 17 1014.5 1014.5 0.6
22/04:29pm 12.1 8.2 9.3 83 1.4 WSW 20 35 11 19 1014.5 1014.5 0.6
22/04:04pm 14.3 8.5 7.8 65 3.2 W 28 46 15 25 1014.0 1014.0 0.2
22/04:00pm 15.1 10.1 8.1 63 3.5 W 24 35 13 19 1014.0 1014.0 0.2
22/03:30pm 13.4 9.4 9.1 75 2.2 W 20 33 11 18 1014.1 1014.1 0.2
22/03:00pm 14.1 9.2 8.3 68 2.9 WSW 24 41 13 22 1013.9 1013.9 0.2
22/02:45pm 15.0 9.4 8.9 67 3.1 WNW 28 48 15 26 1013.6 1013.6 0.2
22/02:30pm 15.2 9.5 8.2 63 3.5 WNW 28 41 15 22 1013.5 1013.5 0.2
22/02:07pm 15.0 9.3 8.3 64 3.4 W 28 46 15 25 1013.4 1013.4 0.2
22/02:00pm 15.1 11.0 10.1 72 2.6 WNW 22 35 12 19 1013.4 1013.4 0.2
22/01:30pm 14.5 9.4 9.1 70 2.8 WNW 26 39 14 21 1013.4 1013.4 0.2
22/01:00pm 14.2 8.7 9.2 72 2.6 W 28 50 15 27 1013.3 1013.3 0.2
22/12:51pm 13.9 8.7 8.9 72 2.5 W 26 50 14 27 1013.2 1013.2 0.2
22/12:30pm 14.3 9.3 9.5 73 2.5 WNW 26 43 14 23 1013.3 1013.3 0.2
22/12:00pm 12.9 8.1 10.4 85 1.3 WNW 26 50 14 27 1013.3 1013.3 0.2
22/11:52am 13.5 8.5 10.9 84 1.4 W 28 50 15 27 1013.3 1013.3 0.2
22/11:30am 14.5 9.0 9.3 71 2.7 WNW 28 39 15 21 1012.9 1012.9 0.0
22/11:09am 15.1 9.3 8.1 63 3.5 W 28 48 15 26 1012.8 1012.8 0.0
22/11:00am 14.8 10.3 8.7 67 3.1 WNW 22 35 12 19 1012.8 1012.8 0.0
22/10:35am 15.1 8.8 8.8 66 3.2 WNW 32 48 17 26 1012.5 1012.5 0.0
22/10:30am 14.6 9.1 9.0 69 2.9 WNW 28 44 15 24 1012.6 1012.6 0.0
22/10:00am 14.7 9.2 9.1 69 2.9 W 28 46 15 25 1012.4 1012.4 0.0
22/09:55am 14.2 8.6 8.6 69 2.8 WNW 28 46 15 25 1012.4 1012.4 0.0
22/09:30am 14.3 8.8 9.1 71 2.7 WNW 28 44 15 24 1012.4 1012.4 0.0
22/09:00am 13.2 8.0 8.9 75 2.2 W 26 39 14 21 1012.3 1012.3 11.0
22/08:30am 12.9 8.4 8.6 75 2.1 WNW 22 41 12 22 1012.1 1012.1 11.0
22/08:00am 11.7 6.9 8.7 82 1.5 WNW 24 43 13 23 1011.8 1011.8 11.0
22/07:30am 12.4 9.1 9.6 83 1.4 WNW 17 28 9 15 1011.3 1011.3 10.6
22/07:00am 11.3 8.0 9.4 88 1.0 WNW 17 26 9 14 1010.9 1010.9 10.6
22/06:53am 10.9 7.5 9.0 88 0.9 WNW 17 26 9 14 1010.9 1010.9 10.6
22/06:30am 10.5 5.7 8.9 90 0.8 W 24 59 13 32 1010.8 1010.8 9.4
22/06:24am 11.8 8.5 9.7 87 1.1 WNW 17 28 9 15 1010.4 1010.4 4.4
22/06:00am 12.0 7.9 8.8 81 1.6 NW 20 35 11 19 1010.2 1010.2 4.0
22/05:30am 11.7 7.7 9.1 84 1.3 WNW 20 39 11 21 1010.0 1010.0 4.0
22/05:21am 11.5 7.5 9.1 85 1.2 WNW 20 35 11 19 1009.9 1009.9 4.0
22/05:09am 11.4 8.2 9.8 90 0.8 W 17 33 9 18 1009.7 1009.7 4.0
22/05:00am 11.7 8.4 9.4 86 1.2 WNW 17 32 9 17 1009.2 1009.2 3.6
22/04:30am 11.7 7.8 9.3 85 1.2 NW 20 30 11 16 1009.1 1009.1 3.0
22/04:22am 11.8 7.9 9.5 86 1.2 NW 20 35 11 19 1009.0 1009.0 3.0
22/04:02am 11.8 7.5 9.5 86 1.2 WNW 22 39 12 21 1009.0 1009.0 2.6
22/04:00am 12.0 8.0 9.2 83 1.4 WNW 20 39 11 21 1008.9 1008.9 2.2
22/03:30am 12.0 8.3 9.4 84 1.3 WNW 19 39 10 21 1008.9 1008.9 2.0
22/03:00am 12.2 8.8 9.2 82 1.5 NW 17 32 9 17 1008.8 1008.8 1.6
22/02:30am 12.1 8.1 8.9 81 1.6 WNW 20 33 11 18 1008.8 1008.8 1.6
22/02:00am 12.2 8.3 9.6 84 1.3 WNW 20 33 11 18 1008.9 1008.9 1.6
22/01:30am 11.8 9.4 9.9 88 1.0 WNW 13 22 7 12 1009.2 1009.2 1.4
22/01:18am 11.7 8.5 9.8 88 1.0 WNW 17 26 9 14 1009.1 1009.1 1.4
22/01:00am 11.9 7.3 9.6 86 1.2 WNW 24 44 13 24 1009.3 1009.3 1.2
22/12:58am 12.1 7.5 9.7 85 1.2 WNW 24 44 13 24 1009.3 1009.3 1.2
22/12:30am 12.9 8.8 8.6 75 2.2 NW 20 35 11 19 1009.0 1009.0 0.8
22/12:00am 12.9 7.9 8.0 72 2.4 WNW 24 39 13 21 1009.0 1009.0 0.8
 
Date/Time
CST
Temp
°C
App
Temp
°C
Dew
Point
°C
Rel
Hum
%
Delta-T
°C
Wind Press
QNH
hPa
Press
MSL
hPa
Rain since
9am
mm
Dir  Spd
km/h
Gust
km/h
Spd
kts
Gust
kts
21/11:30pm 12.6 8.8 8.9 78 1.9 WNW 19 41 10 22 1009.0 1009.0 0.8
21/11:00pm 12.4 8.2 8.3 76 2.0 WNW 20 32 11 17 1009.0 1009.0 0.8
21/10:30pm 12.7 8.9 9.7 82 1.5 WNW 20 32 11 17 1009.0 1009.0 0.8
21/10:05pm 11.8 7.1 9.2 84 1.3 WNW 24 39 13 21 1008.7 1008.7 0.8
21/10:00pm 11.7 6.3 9.4 86 1.2 WNW 28 48 15 26 1008.6 1008.6 0.8
21/09:41pm 12.4 6.8 10.0 85 1.2 WNW 30 59 16 32 1008.7 1008.7 0.2
21/09:38pm 12.8 7.5 10.0 83 1.4 WNW 28 59 15 32 1008.7 1008.7 0.2
21/09:30pm 14.2 9.5 9.4 73 2.5 WNW 24 39 13 21 1008.4 1008.4 0.0
21/09:05pm 14.1 8.6 9.1 72 2.5 NW 28 46 15 25 1008.2 1008.2 0.0
21/09:00pm 14.1 9.4 9.3 73 2.5 NW 24 41 13 22 1008.2 1008.2 0.0
21/08:30pm 14.2 9.9 9.2 72 2.6 NW 22 33 12 18 1007.6 1007.6 0.0
21/08:00pm 14.4 9.9 8.6 68 2.9 WNW 22 33 12 18 1007.1 1007.0 0.0
21/07:30pm 14.4 10.8 8.4 67 3.0 WNW 17 26 9 14 1007.1 1007.0 0.0
21/07:00pm 14.5 10.2 7.8 64 3.3 WNW 20 32 11 17 1006.8 1006.7 0.0
21/06:30pm 14.7 9.7 6.5 58 4.0 WNW 22 33 12 18 1006.5 1006.4 0.0
21/06:00pm 14.8 10.1 9.2 69 2.9 WNW 24 39 13 21 1006.3 1006.2 0.0
21/05:30pm 16.2 11.7 8.4 60 4.0 W 22 37 12 20 1006.0 1005.9 0.0
21/05:00pm 17.1 12.8 8.0 55 4.6 WNW 20 35 11 19 1005.7 1005.6 0.0
21/04:30pm 17.4 12.3 7.7 53 4.9 WNW 24 39 13 21 1005.5 1005.4 0.0
21/04:00pm 18.1 12.6 7.5 50 5.4 WNW 26 44 14 24 1005.1 1005.0 0.0
21/03:30pm 17.3 12.2 7.6 53 4.9 WNW 24 39 13 21 1005.1 1005.0 0.0
21/03:00pm 17.7 13.6 8.0 53 5.0 WNW 19 28 10 15 1005.1 1005.0 0.0
21/02:30pm 17.5 13.2 7.8 53 4.9 WNW 20 35 11 19 1005.3 1005.2 0.0
21/02:00pm 17.5 12.5 8.1 54 4.8 NW 24 44 13 24 1005.4 1005.3 0.0
21/01:30pm 17.7 12.5 7.2 50 5.3 WNW 24 39 13 21 1005.3 1005.2 0.0
21/01:00pm 18.0 11.9 6.8 48 5.6 NW 28 41 15 22 1005.6 1005.5 0.0
21/12:30pm 17.7 12.4 6.6 48 5.5 NW 24 48 13 26 1005.5 1005.4 0.0
21/12:00pm 17.9 10.1 4.8 42 6.3 NW 35 56 19 30 1005.6 1005.5 0.0
21/11:30am 19.0 11.7 4.4 38 7.0 NW 32 57 17 31 1005.5 1005.4 0.0
21/11:00am 18.6 11.1 3.3 36 7.1 NW 32 52 17 28 1005.5 1005.4 0.0
21/10:30am 18.2 10.4 2.9 36 7.1 NNW 33 52 18 28 1005.4 1005.3 0.0
21/10:02am 17.4 9.6 1.4 34 7.1 NNW 32 50 17 27 1005.4 1005.3 0.0
21/10:00am 17.6 10.2 1.6 34 7.2 NNW 30 46 16 25 1005.4 1005.3 0.0
21/09:50am 17.0 9.7 0.2 32 7.3 NNW 28 52 15 28 1005.3 1005.2 0.0
21/09:30am 16.4 10.1 1.3 36 6.7 N 24 43 13 23 1005.1 1005.0 0.0
21/09:00am 15.4 10.0 2.6 42 5.8 N 20 30 11 16 1005.5 1005.4 0.6
21/08:30am 13.7 9.1 3.5 50 4.6 N 17 28 9 15 1005.6 1005.5 0.6
21/08:00am 12.5 8.2 3.2 53 4.1 N 15 22 8 12 1005.8 1005.7 0.6
21/07:30am 11.5 7.4 4.3 61 3.3 NNE 15 20 8 11 1006.2 1006.1 0.6
21/07:00am 10.5 6.5 5.1 69 2.5 NE 15 20 8 11 1006.1 1006.0 0.6
21/06:30am 10.1 6.7 5.7 74 2.0 NNE 13 20 7 11 1006.1 1006.0 0.6
21/06:00am 11.1 8.1 6.0 71 2.4 NNE 11 19 6 10 1005.9 1005.8 0.6
21/05:30am 12.2 8.9 4.7 60 3.4 NW 11 17 6 9 1006.0 1005.9 0.6
21/05:00am 12.3 9.5 5.0 61 3.4 NW 9 13 5 7 1005.9 1005.8 0.6
21/04:30am 12.7 9.2 5.6 62 3.3 NW 13 20 7 11 1005.9 1005.8 0.6
21/04:00am 12.4 9.4 6.0 65 3.0 NW 11 19 6 10 1005.9 1005.8 0.6
21/03:30am 12.5 9.5 5.9 64 3.1 NW 11 19 6 10 1005.9 1005.8 0.6
21/03:00am 12.6 9.3 6.2 65 3.0 NW 13 17 7 9 1005.8 1005.7 0.6
21/02:30am 12.9 9.6 6.3 64 3.2 NW 13 20 7 11 1006.0 1005.9 0.6
21/02:00am 13.3 9.0 5.2 58 3.8 WNW 17 28 9 15 1006.4 1006.3 0.6
21/01:30am 13.8 9.5 7.1 64 3.3 NW 19 28 10 15 1006.8 1006.7 0.6
21/01:00am 14.0 10.5 7.3 64 3.3 WNW 15 24 8 13 1007.1 1007.0 0.6
21/12:30am 14.6 10.2 7.2 61 3.6 NW 20 28 11 15 1007.3 1007.3 0.6
21/12:00am 14.7 11.7 7.7 63 3.5 NW 13 19 7 10 1007.4 1007.4 0.6
 
Date/Time
CST
Temp
°C
App
Temp
°C
Dew
Point
°C
Rel
Hum
%
Delta-T
°C
Wind Press
QNH
hPa
Press
MSL
hPa
Rain since
9am
mm
Dir  Spd
km/h
Gust
km/h
Spd
kts
Gust
kts
20/11:30pm 14.9 11.3 6.7 58 4.0 WNW 15 24 8 13 1007.6 1007.6 0.6
20/11:00pm 15.2 10.8 6.7 57 4.1 WNW 19 30 10 16 1007.6 1007.6 0.6
20/10:30pm 15.6 10.5 6.1 53 4.6 NW 22 35 12 19 1007.7 1007.7 0.6
20/10:00pm 15.9 13.0 9.8 67 3.2 NW 15 20 8 11 1007.4 1007.4 0.6
20/09:30pm 15.8 14.3 9.2 65 3.4 NW 7 13 4 7 1007.1 1007.0 0.6
20/09:00pm 15.7 13.9 9.4 66 3.3 SW 9 15 5 8 1006.8 1006.7 0.6
20/08:30pm 15.9 14.3 8.9 63 3.6 SW 7 17 4 9 1006.2 1006.1 0.6
20/08:00pm 16.2 13.2 9.2 63 3.6 SW 15 20 8 11 1005.4 1005.3 0.6
20/07:30pm 17.0 14.4 12.1 73 2.7 WSW 17 28 9 15 1004.7 1004.6 0.6
20/07:00pm 17.4 14.9 12.3 72 2.8 W 17 32 9 17 1004.0 1003.9 0.6
20/06:30pm 17.9 14.0 12.1 69 3.2 W 24 37 13 20 1003.1 1003.0 0.6
20/06:00pm 18.0 14.4 12.9 72 2.9 W 24 41 13 22 1002.9 1002.8 0.6
20/05:30pm 18.6 14.3 12.1 66 3.6 WNW 26 43 14 23 1001.5 1001.5 0.4
20/05:09pm 21.7 15.8 12.3 55 5.3 NW 35 70 19 38 1000.6 1000.6 0.0
20/05:08pm 22.5 16.6 12.4 52 5.7 NW 35 70 19 38 1000.4 1000.4 0.0
20/05:00pm 26.1 19.9 9.9 36 9.0 NNW 33 52 18 28 998.7 998.7 0.0
20/04:30pm 26.7 21.3 9.5 34 9.5 NNW 28 46 15 25 998.8 998.8 0.0
20/04:16pm 26.3 20.8 9.2 34 9.4 NNW 28 48 15 26 999.3 999.3 0.0
20/04:00pm 25.6 20.1 9.0 35 9.0 NNW 28 44 15 24 999.5 999.5 0.0
20/03:30pm 27.5 21.1 6.8 27 11.0 NNW 30 50 16 27 999.4 999.4 0.0
20/03:00pm 27.7 21.2 8.1 29 10.7 NNW 32 50 17 27 999.2 999.2 0.0
20/02:37pm 27.7 21.7 7.0 27 11.0 N 28 50 15 27 999.3 999.3 0.0
20/02:30pm 27.3 21.8 7.7 29 10.6 N 26 39 14 21 999.4 999.4 0.0
20/02:00pm 26.2 21.5 9.1 34 9.4 N 24 43 13 23 1000.1 1000.1 0.0
20/01:30pm 25.7 21.1 9.5 36 8.9 N 24 39 13 21 1000.8 1000.8 0.0
20/01:00pm 24.7 20.8 9.4 38 8.3 N 20 33 11 18 1001.5 1001.5 0.0
20/12:30pm 24.2 20.1 10.1 41 7.8 NNW 22 39 12 21 1002.3 1002.3 0.0
20/12:00pm 23.3 19.7 10.7 45 7.0 NNW 20 33 11 18 1003.4 1003.3 0.0
20/11:30am 23.2 19.7 10.9 46 6.9 NNW 20 30 11 16 1004.0 1003.9 0.0
20/11:00am 22.4 19.2 11.2 49 6.2 N 19 32 10 17 1004.3 1004.2 0.0
20/10:30am 21.4 18.6 11.4 53 5.6 N 17 28 9 15 1004.2 1004.1 0.0
20/10:00am 20.0 17.3 11.8 59 4.6 N 17 30 9 16 1004.9 1004.8 0.0
20/09:30am 19.8 17.5 11.6 59 4.5 N 15 28 8 15 1005.6 1005.5 0.0
20/09:00am 18.8 16.5 11.9 64 3.8 N 15 24 8 13 1006.0 1005.9 0.0
20/08:30am 18.4 16.5 11.9 66 3.6 N 13 28 7 15 1006.2 1006.1 0.0
20/08:00am 17.0 15.1 11.9 72 2.8 N 13 20 7 11 1006.1 1006.0 0.0
20/07:30am 16.2 14.6 11.6 74 2.5 NNE 11 19 6 10 1006.0 1005.9 0.0
20/07:00am 15.2 13.6 11.4 78 2.0 NNE 11 15 6 8 1005.9 1005.8 0.0
20/06:30am 14.4 13.1 11.2 81 1.7 NNE 9 15 5 8 1005.7 1005.6 0.0
20/06:00am 14.6 12.6 11.4 81 1.7 NNE 13 19 7 10 1005.6 1005.5 0.0
20/05:30am 14.7 13.1 11.5 81 1.7 NNE 11 15 6 8 1005.7 1005.6 0.0
20/05:00am 15.1 14.0 11.9 81 1.7 N 9 13 5 7 1005.9 1005.8 0.0
20/04:30am 14.9 14.2 11.9 82 1.6 N 7 13 4 7 1005.9 1005.8 0.0

Other formats

Comma delimited format used in spreadsheet applications
http://www.bom.gov.au/fwo/IDS60801/IDS60801.94648.axf

JavaScript Object Notation format (JSON) in row-major order
http://www.bom.gov.au/fwo/IDS60801/IDS60801.94648.json

Data quality

Most of these data are generated automatically and are frequently updated. Quality checks on data are not normally performed. It is possible for incorrect values to appear. Refer to information at About Latest Weather Observations and please check the disclaimer before using these data.